Rollingstone, MN (55969)

2:18 PM CST on December 07, 2016 (GMT -0600)
Altura,MN | | Change Station

Elev 1165 ft 44.07 °N, 91.94 °W | Updated 40 seconds ago

Light Snow
Light Snow
18.9 °F
Feels Like 9 °F
N
8.3
Wind Variable Wind from West
Gusts 15.9 mph

Today
High -- | Low -- °F
--% Chance of Precip.
Yesterday
High -- | Low -- °F
Precip. -- in
Pressure 30.07 in
Visibility 10.0 miles
Clouds Overcast 2700 ft
Windchill 9 °F
Dew Point 8 °F
Humidity 62%
Rainfall 0.00 in
Snow Depth Not available.
7:29 AM 4:28 PM
First Quarter, 55% visible
METAR KONA 072013Z AUTO 28013G19KT 10SM -SN OVC027 M05/M10 A3007 RMK AO2
Pressure 30.07 in
Visibility 10.0 miles
Clouds Overcast 2700 ft
Windchill 9 °F
Dew Point 8 °F
Humidity 62%
Rainfall 0.00 in
Snow Depth Not available.
7:29 AM 4:28 PM
First Quarter, 55% visible
METAR KONA 072013Z AUTO 28013G19KT 10SM -SN OVC027 M05/M10 A3007 RMK AO2

10-Day Weather Forecast

Almanac

Astronomy

Dec. 07, 2016 Rise Set
Actual Time
Civil Twilight
Nautical Twilight
Astronomical Twilight
Moon
Length of Visible Light
Length of Day
Tomorrow will be .
, % of the Moon is Illuminated

Today's Extremes

State Highs State Lows

Community

WunderPhotos

Upload Photos

1,956,164 photos uploaded!

WunderBlog® & News

Nearby

Air Quality

  Air Quality AQ Index Pollutant
Not available.

Snow Depth

Station Depth Elevation

Earthquake Activity

City Distance Mag. Time & Date
Minimum magnitude displayed is 2.5.

Coastal Water Temperatures

Place Temperature

Stations

Nearby Weather Stations

Station Location Temp. Windchill Dew Point Humidity Wind Precip. Elev Updated Type
                   

Watches & Warnings

There are currently no watches in effect.